Calumet Park, IL (60827)

6:13 AM CDT on May 28, 2015 (GMT -0500)
Morgan Park | | Change Station
CLOSE
Current Station
Personal Weather Station
Location: Chicago, IL
Elevation: 616 ft
Nearby Weather Stations

Elev 616 ft 41.69 °N, 87.69 °W | Updated 1 minute ago

Clear
Clear
57.8 °F
Feels Like 57.8 °F
N
0.0
Wind Variable Wind from NW
Gusts 0.0 mph

Today
High -- | Low -- °F
--% Chance of Precip.
Yesterday
High -- | Low -- °F
Precip. -- in
5:20 AM 8:15 PM
Waxing Gibbous, 75% visible
Pressure 30.21 in
Visibility 5.0 miles
Clouds Clear
Dew Point 56 °F
Humidity 94%
Rainfall 0.00 in
Snow Depth Not available.
UV 0.0 out of 12
Pollen 9.20 out of 12
Air Quality Not available.
Flu Activity Sporadic
METAR KIGQ 281055Z AUTO 20005KT 5SM BR CLR 11/10 A3021

More Conditions Fewer Conditions

Pressure 30.21 in
Visibility 5.0 miles
Clouds Clear
Dew Point 56 °F
Humidity 94%
Rainfall 0.00 in
Snow Depth Not available.
UV 0.0 out of 12
Pollen 9.20 out of 12
Air Quality Not available.
Flu Activity Sporadic
METAR KIGQ 281055Z AUTO 20005KT 5SM BR CLR 11/10 A3021

More Conditions Fewer Conditions

10-Day Weather Forecast

Almanac

Astronomy

May. 28, 2015 Rise Set
Actual Time
Civil Twilight
Nautical Twilight
Astronomical Twilight
Moon
Length of Visible Light
Length of Day
Tomorrow will be .
, % of the Moon is Illuminated

Today's Extremes

State Highs State Lows

Community

WunderPhotos

Upload Photos

1,824,954 photos uploaded!

WunderBlogs® & News

Nearby

Air Quality

  Air Quality AQ Index Pollutant
Not available.

Snow Depth

Station Depth Elevation

Earthquake Activity

City Distance Mag. Time & Date
Minimum magnitude displayed is 2.5.

Coastal Water Temperatures

Place Temperature

Stations

Nearby Weather Stations

Station Location Temp. Windchill Dew Point Humidity Wind Precip. Elev Updated Type